Time;durP1;ratioP1;P1;durP2;ratioP2;P2;SDS_P1;SDS_P2;PMS_P1;PMS_P2;Temp;Humidity;BMP_temperature;BMP_pressure;BME280_temperature;BME280_humidity;BME280_pressure;Samples;Min_cycle;Max_cycle;Signal;HPM_P1;HPM_P2
2022/11/06 00:00:42;;;;;;;4.65;1.77;;;11.20;93.90;;;;;;5111609;28;20027;-72
2022/11/06 00:03:08;;;;;;;8.38;1.95;;;11.20;94.10;;;;;;5111277;28;20031;-75
2022/11/06 00:08:27;;;;;;;6.20;2.17;;;11.20;94.20;;;;;;5111701;28;20063;-72
2022/11/06 00:10:53;;;;;;;7.22;1.80;;;11.20;94.20;;;;;;5111858;28;20038;-72
2022/11/06 00:13:19;;;;;;;7.13;1.77;;;11.20;94.30;;;;;;5089471;28;20044;-73
2022/11/06 00:15:45;;;;;;;4.25;2.38;;;11.20;94.30;;;;;;5089644;28;20361;-73
2022/11/06 00:18:10;;;;;;;9.93;2.38;;;11.10;94.30;;;;;;5090012;28;20055;-72
2022/11/06 00:20:36;;;;;;;4.95;2.10;;;11.20;94.50;;;;;;5091544;28;20032;-72
2022/11/06 00:23:02;;;;;;;8.13;2.08;;;11.20;94.40;;;;;;5090979;28;20036;-72
2022/11/06 00:25:28;;;;;;;6.57;1.83;;;11.10;94.50;;;;;;5091188;28;20040;-73
2022/11/06 00:27:53;;;;;;;4.22;2.08;;;11.20;94.60;;;;;;5090784;28;20028;-72
2022/11/06 00:30:19;;;;;;;3.28;1.70;;;11.20;94.60;;;;;;5089701;28;20473;-72
2022/11/06 00:32:46;;;;;;;3.47;1.90;;;11.20;94.90;;;;;;5091288;28;20457;-73
2022/11/06 00:35:12;;;;;;;3.58;1.52;;;11.20;94.70;;;;;;5090617;28;20461;-72
2022/11/06 00:37:38;;;;;;;4.57;1.70;;;11.20;94.70;;;;;;5090285;28;20032;-72
2022/11/06 00:40:05;;;;;;;5.22;2.13;;;11.10;94.70;;;;;;5090654;28;20135;-72
2022/11/06 00:42:31;;;;;;;3.35;1.60;;;11.20;94.80;;;;;;5089676;28;20359;-71
2022/11/06 00:44:56;;;;;;;3.38;1.63;;;11.20;94.80;;;;;;5091076;28;20028;-73
2022/11/06 00:47:23;;;;;;;9.48;2.58;;;11.10;94.90;;;;;;5089637;28;20535;-72
2022/11/06 00:49:48;;;;;;;4.35;2.15;;;11.10;94.80;;;;;;5090955;28;20032;-72
2022/11/06 00:52:14;;;;;;;7.78;2.15;;;11.20;94.80;;;;;;5089590;28;20065;-72
2022/11/06 00:54:40;;;;;;;5.00;2.10;;;11.20;94.80;;;;;;5091866;28;20028;-71
2022/11/06 00:57:06;;;;;;;3.50;1.60;;;11.20;94.90;;;;;;5094643;28;20027;-72
2022/11/06 00:59:32;;;;;;;4.45;1.90;;;11.20;94.80;;;;;;5095220;28;20330;-73
2022/11/06 01:01:57;;;;;;;9.02;2.45;;;11.20;94.70;;;;;;5094323;28;20040;-73
2022/11/06 01:04:24;;;;;;;4.75;2.20;;;11.20;94.90;;;;;;5095283;28;20390;-72
2022/11/06 01:06:52;;;;;;;8.77;2.28;;;11.20;94.80;;;;;;5093624;28;20020;-72
2022/11/06 01:09:19;;;;;;;;;;;11.30;94.90;;;;;;5094840;28;20051;-72
2022/11/06 01:11:48;;;;;;;6.68;2.15;;;11.20;94.90;;;;;;5098357;28;19920;-72
2022/11/06 01:14:16;;;;;;;4.15;1.80;;;11.20;94.90;;;;;;5114704;28;20027;-72
2022/11/06 01:16:42;;;;;;;;;;;11.20;95.00;;;;;;5114979;28;20035;-71
2022/11/06 01:19:09;;;;;;;5.47;1.75;;;11.20;95.00;;;;;;5114345;28;19943;-72
2022/11/06 01:21:37;;;;;;;6.13;2.13;;;11.20;94.90;;;;;;5114529;28;20023;-72
2022/11/06 01:24:06;;;;;;;3.33;1.55;;;11.30;95.00;;;;;;5113850;28;20266;-74
2022/11/06 01:26:33;;;;;;;5.20;2.40;;;11.20;95.10;;;;;;5114738;28;20027;-73
2022/11/06 01:28:58;;;;;;;4.45;1.95;;;11.20;95.10;;;;;;5096257;28;20046;-73
2022/11/06 01:31:29;;;;;;;9.27;2.47;;;11.20;95.10;;;;;;5096232;28;20035;-72
2022/11/06 01:33:56;;;;;;;6.50;2.38;;;11.20;95.10;;;;;;5114132;28;20040;-72
2022/11/06 01:36:23;;;;;;;8.55;2.47;;;11.30;95.10;;;;;;5113983;28;20028;-71
2022/11/06 01:38:52;;;;;;;3.40;2.03;;;11.30;95.10;;;;;;5114498;28;20020;-72
2022/11/06 01:41:24;;;;;;;6.28;2.20;;;11.20;95.10;;;;;;5114203;28;20322;-73
2022/11/06 01:44:01;;;;;;;10.20;2.33;;;11.20;95.10;;;;;;5095846;28;20131;-73
2022/11/06 01:46:31;;;;;;;6.72;2.30;;;11.10;95.00;;;;;;5114111;28;20027;-73
2022/11/06 01:49:03;;;;;;;5.78;2.17;;;11.20;95.00;;;;;;5113995;28;20032;-72
2022/11/06 01:51:34;;;;;;;7.32;2.45;;;11.20;95.00;;;;;;5113817;28;20024;-72
2022/11/06 01:54:03;;;;;;;4.82;2.05;;;11.20;95.00;;;;;;5113914;28;20020;-72
2022/11/06 01:56:29;;;;;;;5.82;2.08;;;11.20;95.00;;;;;;5114990;28;20030;-72
2022/11/06 01:58:55;;;;;;;5.68;2.17;;;11.10;95.00;;;;;;5114169;28;20024;-74
2022/11/06 02:01:22;;;;;;;6.60;2.30;;;11.10;95.10;;;;;;5095993;28;20118;-72
2022/11/06 02:03:55;;;;;;;7.50;2.20;;;11.10;95.30;;;;;;5095574;28;20032;-73
2022/11/06 02:06:21;;;;;;;5.65;1.75;;;11.10;95.10;;;;;;5113621;28;20035;-75
2022/11/06 02:08:47;;;;;;;5.63;2.20;;;11.10;95.10;;;;;;5113803;28;20508;-72
2022/11/06 02:11:12;;;;;;;6.60;2.90;;;11.20;95.10;;;;;;5095396;28;20055;-74
2022/11/06 02:14:03;;;;;;;4.00;2.30;;;11.20;95.00;;;;;;5113188;28;20047;-73
2022/11/06 02:16:42;;;;;;;6.20;2.30;;;11.10;95.00;;;;;;5095507;28;20119;-74
2022/11/06 02:19:37;;;;;;;5.00;2.00;;;11.10;95.00;;;;;;5095406;28;20455;-73
2022/11/06 02:22:34;;;;;;;9.48;2.40;;;11.20;95.00;;;;;;5113479;28;20429;-72
2022/11/06 02:25:21;;;;;;;9.02;2.13;;;11.10;95.10;;;;;;5113195;28;20027;-74
2022/11/06 02:28:03;;;;;;;7.00;2.33;;;11.10;95.10;;;;;;5094916;28;20354;-72
2022/11/06 02:30:33;;;;;;;9.38;2.70;;;11.10;95.20;;;;;;5113030;28;20024;-72
2022/11/06 02:33:07;;;;;;;5.78;2.38;;;11.10;95.10;;;;;;5095177;28;20027;-72
2022/11/06 02:35:46;;;;;;;7.60;2.75;;;11.00;95.20;;;;;;5119661;27;20011;-74
2022/11/06 02:38:24;;;;;;;7.28;3.22;;;11.00;95.20;;;;;;5133407;27;20027;-73
2022/11/06 02:40:55;;;;;;;;;;;11.00;95.20;;;;;;5115688;27;20422;-73
2022/11/06 02:43:26;;;;;;;6.18;2.80;;;10.90;95.20;;;;;;5133301;27;20341;-72
2022/11/06 02:46:21;;;;;;;7.63;2.50;;;10.90;95.30;;;;;;5133321;27;20026;-72
2022/11/06 02:48:52;;;;;;;6.00;2.80;;;10.90;95.30;;;;;;5133316;27;20038;-73
2022/11/06 02:51:23;;;;;;;5.97;2.88;;;10.90;95.40;;;;;;5114964;27;20058;-72
2022/11/06 02:53:48;;;;;;;6.95;2.95;;;10.90;95.50;;;;;;5133569;27;20111;-72
2022/11/06 02:56:19;;;;;;;4.03;2.58;;;10.90;95.50;;;;;;5133323;27;20194;-72
2022/11/06 02:58:51;;;;;;;5.97;3.10;;;10.90;95.50;;;;;;5115134;27;20023;-72
2022/11/06 03:01:45;;;;;;;5.20;2.33;;;10.90;95.40;;;;;;5133276;27;20130;-72
2022/11/06 03:04:38;;;;;;;7.30;2.80;;;10.90;95.50;;;;;;5129634;27;20094;-71
2022/11/06 03:07:19;;;;;;;6.70;2.83;;;10.90;95.50;;;;;;5106512;27;20035;-71
2022/11/06 03:09:47;;;;;;;6.95;3.17;;;10.80;95.60;;;;;;5132788;27;20027;-71
2022/11/06 03:12:22;;;;;;;9.18;3.08;;;10.80;95.50;;;;;;5132132;27;20039;-71
2022/11/06 03:15:13;;;;;;;5.18;2.90;;;10.90;95.60;;;;;;5133596;27;20023;-72
2022/11/06 03:17:43;;;;;;;9.05;3.35;;;10.80;95.70;;;;;;5132263;27;20042;-72
2022/11/06 03:20:09;;;;;;;11.43;3.22;;;10.70;95.80;;;;;;5132758;27;20038;-72
2022/11/06 03:22:46;;;;;;;8.30;3.25;;;10.70;95.80;;;;;;5132631;27;20114;-72
2022/11/06 03:25:22;;;;;;;7.68;2.72;;;10.70;95.90;;;;;;5132636;27;20041;-71
2022/11/06 03:28:09;;;;;;;8.27;3.33;;;10.70;96.00;;;;;;5132510;27;20441;-73
2022/11/06 03:30:45;;;;;;;6.57;3.15;;;10.60;96.10;;;;;;5114214;27;20027;-73
2022/11/06 03:33:41;;;;;;;8.82;3.33;;;10.60;96.10;;;;;;5114113;27;20027;-72
2022/11/06 03:36:25;;;;;;;10.87;3.20;;;10.60;96.00;;;;;;5124550;27;20088;-73
2022/11/06 03:39:07;;;;;;;7.15;3.63;;;10.60;96.10;;;;;;5114559;27;20494;-73
2022/11/06 03:41:40;;;;;;;6.55;2.95;;;10.60;96.00;;;;;;5132456;27;20100;-73
2022/11/06 03:44:09;;;;;;;11.00;4.28;;;10.60;96.10;;;;;;5132260;27;20054;-73
2022/11/06 03:46:41;;;;;;;7.15;3.50;;;10.50;96.10;;;;;;5132223;27;20031;-74
2022/11/06 03:49:12;;;;;;;8.60;3.30;;;10.50;96.30;;;;;;5131903;27;20041;-72
2022/11/06 03:52:13;;;;;;;8.48;3.38;;;10.50;96.30;;;;;;5132488;27;20031;-72
2022/11/06 03:54:45;;;;;;;7.00;3.47;;;10.50;96.30;;;;;;5127267;27;20023;-72
2022/11/06 03:57:22;;;;;;;8.18;3.72;;;10.50;96.30;;;;;;5131351;27;20440;-72
2022/11/06 03:59:54;;;;;;;7.55;3.42;;;10.50;96.40;;;;;;5132562;27;20506;-72
2022/11/06 04:02:22;;;;;;;7.22;3.08;;;10.60;96.30;;;;;;5132106;27;20039;-74
2022/11/06 04:04:50;;;;;;;;;;;10.50;96.50;;;;;;5114437;27;20038;-72
2022/11/06 04:07:21;;;;;;;8.27;3.13;;;10.50;96.50;;;;;;5131573;27;20472;-72
2022/11/06 04:15:23;;;;;;;9.77;3.15;;;10.40;96.50;;;;;;5131921;27;20038;-73
2022/11/06 04:17:49;;;;;;;11.23;3.50;;;10.40;96.50;;;;;;5132270;28;20061;-73
2022/11/06 04:23:36;;;;;;;8.95;3.17;;;10.30;96.70;;;;;;5131578;27;20127;-72
2022/11/06 04:28:59;;;;;;;8.95;3.50;;;10.20;96.80;;;;;;5133735;27;20034;-73
2022/11/06 04:31:41;;;;;;;5.68;3.30;;;10.20;96.90;;;;;;5136009;27;20038;-73
2022/11/06 04:34:44;;;;;;;8.68;2.88;;;10.20;96.90;;;;;;5135868;27;20122;-73
2022/11/06 04:37:19;;;;;;;8.20;2.75;;;10.20;96.90;;;;;;5135394;27;20110;-74
2022/11/06 04:40:16;;;;;;;9.88;3.15;;;10.20;96.90;;;;;;5135583;27;20184;-74
2022/11/06 04:43:19;;;;;;;8.30;2.73;;;10.20;97.00;;;;;;5134363;27;20043;-73
2022/11/06 04:45:52;;;;;;;11.60;2.88;;;10.20;96.90;;;;;;5135765;27;20264;-73
2022/11/06 04:48:19;;;;;;;7.50;3.17;;;10.20;96.90;;;;;;5117691;27;20110;-73
2022/11/06 04:50:53;;;;;;;8.18;2.80;;;10.20;97.00;;;;;;5118084;27;20035;-73
2022/11/06 04:53:20;;;;;;;11.68;3.25;;;10.10;97.00;;;;;;5135453;27;20031;-72
2022/11/06 04:55:48;;;;;;;10.02;3.42;;;10.10;97.10;;;;;;5135352;27;20027;-71
2022/11/06 04:58:14;;;;;;;6.82;3.05;;;10.20;97.10;;;;;;5135497;27;20077;-72
2022/11/06 05:00:43;;;;;;;7.38;2.67;;;10.20;97.10;;;;;;5135079;27;20023;-71
2022/11/06 05:03:09;;;;;;;7.88;2.88;;;10.20;97.00;;;;;;5135152;27;20087;-73
2022/11/06 05:05:35;;;;;;;7.60;2.97;;;10.20;97.10;;;;;;5135835;27;20388;-73
2022/11/06 05:08:01;;;;;;;6.60;3.22;;;10.20;97.00;;;;;;5135250;27;20031;-72
2022/11/06 05:10:26;;;;;;;13.05;3.08;;;10.20;97.00;;;;;;5135336;27;20367;-72
2022/11/06 05:12:52;;;;;;;12.75;2.95;;;10.30;97.00;;;;;;5134835;27;20104;-72
2022/11/06 05:15:18;;;;;;;9.52;2.90;;;10.20;96.90;;;;;;5134890;27;20034;-72
2022/11/06 05:17:43;;;;;;;9.15;3.20;;;10.30;96.90;;;;;;5117309;27;20031;-71
2022/11/06 05:20:09;;;;;;;7.00;2.53;;;10.20;96.80;;;;;;5134638;27;20031;-72
2022/11/06 05:23:01;;;;;;;8.88;3.03;;;10.20;97.00;;;;;;5134942;27;20428;-72
2022/11/06 05:25:32;;;;;;;7.93;2.67;;;10.30;96.90;;;;;;5135072;27;20035;-73
2022/11/06 05:27:58;;;;;;;10.50;3.15;;;10.20;97.00;;;;;;5116618;27;20060;-72
2022/11/06 05:30:25;;;;;;;5.10;2.35;;;10.20;97.10;;;;;;5134493;27;20019;-73
2022/11/06 05:32:51;;;;;;;6.65;2.67;;;10.20;97.00;;;;;;5135143;27;20310;-70
2022/11/06 05:35:18;;;;;;;10.93;2.80;;;10.20;96.90;;;;;;5134838;27;20035;-73
2022/11/06 05:37:44;;;;;;;7.20;2.65;;;10.20;97.00;;;;;;5134843;27;20035;-72
2022/11/06 05:40:10;;;;;;;6.35;2.63;;;10.20;96.90;;;;;;5133790;27;20030;-72
2022/11/06 05:42:37;;;;;;;3.97;2.65;;;10.30;97.00;;;;;;5134753;27;20100;-72
2022/11/06 05:45:04;;;;;;;6.13;2.63;;;10.20;97.10;;;;;;5116159;27;20459;-72
2022/11/06 05:47:29;;;;;;;11.23;2.58;;;10.30;97.00;;;;;;5134873;27;20050;-72
2022/11/06 05:49:55;;;;;;;6.90;2.33;;;10.30;96.90;;;;;;5134710;27;20043;-73
2022/11/06 05:52:21;;;;;;;10.77;2.70;;;10.30;96.90;;;;;;5133968;27;20039;-72
2022/11/06 05:54:46;;;;;;;8.05;2.63;;;10.30;96.80;;;;;;5116231;27;20163;-73
2022/11/06 05:57:12;;;;;;;13.40;3.03;;;10.30;96.80;;;;;;5134110;27;20520;-72
2022/11/06 05:59:38;;;;;;;9.20;2.97;;;10.40;96.90;;;;;;5116457;27;20125;-71
2022/11/06 06:02:03;;;;;;;7.00;2.40;;;10.30;96.90;;;;;;5134034;27;20035;-72
2022/11/06 06:04:29;;;;;;;7.30;2.80;;;10.30;96.90;;;;;;5115805;27;20031;-73
2022/11/06 06:06:55;;;;;;;11.10;2.72;;;10.30;97.00;;;;;;5134282;27;20028;-72
2022/11/06 06:09:20;;;;;;;11.70;3.22;;;10.20;97.20;;;;;;5134077;27;20146;-73
2022/11/06 06:11:51;;;;;;;11.43;3.15;;;10.20;97.00;;;;;;5134350;27;20043;-73
2022/11/06 06:14:17;;;;;;;8.60;3.33;;;10.20;97.10;;;;;;5134466;27;20118;-72
2022/11/06 06:16:43;;;;;;;4.90;2.72;;;10.20;97.20;;;;;;5134201;27;20042;-72
2022/11/06 06:19:09;;;;;;;5.05;2.28;;;10.10;97.20;;;;;;5133875;27;20421;-72
2022/11/06 06:21:35;;;;;;;8.98;3.22;;;10.20;97.20;;;;;;5115806;27;20023;-73
2022/11/06 06:24:02;;;;;;;7.88;3.17;;;10.10;97.20;;;;;;5133924;27;20027;-73
2022/11/06 06:26:28;;;;;;;9.18;3.30;;;10.20;97.50;;;;;;5134270;27;20111;-71
2022/11/06 06:28:54;;;;;;;6.60;3.22;;;10.20;97.30;;;;;;5133799;27;20118;-73
2022/11/06 06:31:19;;;;;;;6.38;3.35;;;10.20;97.20;;;;;;5134047;27;20531;-72
2022/11/06 06:33:45;;;;;;;6.90;3.17;;;10.20;97.20;;;;;;5133563;27;20371;-72
2022/11/06 06:36:11;;;;;;;6.53;3.00;;;10.20;97.20;;;;;;5133587;27;20429;-72
2022/11/06 06:38:37;;;;;;;9.82;3.22;;;10.20;97.30;;;;;;5134001;27;20038;-72
2022/11/06 06:41:04;;;;;;;9.98;3.33;;;10.20;97.20;;;;;;5134009;27;20042;-72
2022/11/06 06:43:31;;;;;;;8.25;3.15;;;10.20;97.20;;;;;;5133710;27;20039;-72
2022/11/06 06:45:59;;;;;;;6.43;3.45;;;10.20;97.20;;;;;;5133573;27;20117;-72
2022/11/06 06:48:24;;;;;;;11.18;4.03;;;10.10;97.30;;;;;;5115172;27;20363;-74
2022/11/06 06:50:50;;;;;;;10.25;3.55;;;10.20;97.30;;;;;;5134140;27;20023;-71
2022/11/06 06:53:16;;;;;;;9.95;3.35;;;10.10;97.30;;;;;;5113986;27;20106;-73
2022/11/06 06:55:42;;;;;;;11.32;4.15;;;10.20;97.40;;;;;;5114924;27;20039;-73
2022/11/06 06:58:07;;;;;;;11.50;4.57;;;10.20;97.40;;;;;;5115028;27;20019;-73
2022/11/06 07:00:33;;;;;;;11.75;3.60;;;10.20;97.40;;;;;;5114765;27;20118;-74
2022/11/06 07:03:00;;;;;;;7.32;3.30;;;10.20;97.30;;;;;;5114756;27;20423;-72
2022/11/06 07:05:26;;;;;;;7.55;3.03;;;10.20;97.40;;;;;;5133802;27;20023;-73
2022/11/06 07:07:52;;;;;;;10.07;4.20;;;10.10;97.40;;;;;;5133046;27;20042;-73
2022/11/06 07:10:18;;;;;;;15.43;4.15;;;10.20;97.40;;;;;;5132858;27;20165;-73
2022/11/06 07:12:44;;;;;;;7.20;3.15;;;10.30;97.50;;;;;;5132555;27;20118;-72
2022/11/06 07:15:10;;;;;;;8.23;3.67;;;10.20;97.40;;;;;;5133037;27;20019;-71
2022/11/06 07:17:35;;;;;;;6.90;3.42;;;10.20;97.30;;;;;;5133251;27;20027;-71
2022/11/06 07:20:03;;;;;;;8.30;3.53;;;10.20;97.40;;;;;;5114824;27;20035;-71
2022/11/06 07:22:29;;;;;;;7.88;4.00;;;10.20;97.40;;;;;;5132839;27;20043;-72
2022/11/06 07:24:55;;;;;;;13.75;4.63;;;10.20;97.50;;;;;;5097415;27;20038;-72
2022/11/06 07:27:20;;;;;;;10.45;5.55;;;10.20;97.40;;;;;;5132466;27;20027;-72
2022/11/06 07:29:46;;;;;;;8.45;4.25;;;10.30;97.60;;;;;;5133174;27;20031;-71
2022/11/06 07:32:12;;;;;;;13.10;4.53;;;10.30;97.50;;;;;;5132595;27;20031;-72
2022/11/06 07:34:37;;;;;;;9.23;4.30;;;10.30;97.50;;;;;;5132552;27;20024;-71
2022/11/06 07:37:07;;;;;;;8.10;4.13;;;10.30;97.50;;;;;;5132462;27;20080;-72
2022/11/06 07:39:33;;;;;;;35.55;19.80;;;10.40;97.40;;;;;;5132332;27;20027;-73
2022/11/06 07:41:58;;;;;;;23.35;10.80;;;10.50;97.50;;;;;;5132278;27;20118;-72
2022/11/06 07:44:24;;;;;;;11.85;5.32;;;10.40;97.40;;;;;;5133164;27;20483;-72
2022/11/06 07:46:50;;;;;;;11.85;5.57;;;10.50;97.50;;;;;;5132409;27;20226;-73
2022/11/06 07:49:16;;;;;;;12.90;5.25;;;10.50;97.40;;;;;;5113903;27;20031;-73
2022/11/06 07:51:43;;;;;;;11.82;4.53;;;10.50;97.40;;;;;;5132668;27;20115;-72
2022/11/06 07:54:10;;;;;;;9.38;3.85;;;10.60;97.40;;;;;;5132184;27;20023;-72
2022/11/06 07:56:36;;;;;;;12.52;4.68;;;10.60;97.40;;;;;;5133402;27;20410;-75
2022/11/06 07:59:02;;;;;;;8.85;3.80;;;10.60;97.40;;;;;;5132076;27;20024;-76
2022/11/06 08:01:30;;;;;;;10.02;3.88;;;10.60;97.40;;;;;;5132008;27;20031;-72
2022/11/06 08:03:55;;;;;;;8.73;4.63;;;10.60;97.40;;;;;;5131830;27;20410;-74
2022/11/06 08:06:21;;;;;;;10.10;4.72;;;10.70;97.40;;;;;;5131979;27;20027;-72
2022/11/06 08:08:47;;;;;;;11.25;4.05;;;10.70;97.40;;;;;;5132358;27;20237;-70
2022/11/06 08:11:13;;;;;;;10.40;3.70;;;10.70;97.30;;;;;;5131972;27;20031;-72
2022/11/06 08:13:40;;;;;;;10.80;4.60;;;10.70;97.40;;;;;;5131455;27;20039;-73
2022/11/06 08:16:10;;;;;;;15.32;4.35;;;10.80;97.40;;;;;;5131884;27;20032;-74
2022/11/06 08:18:36;;;;;;;8.82;3.80;;;10.90;97.40;;;;;;5131918;27;20523;-74
2022/11/06 08:21:03;;;;;;;8.68;3.97;;;11.10;97.40;;;;;;5131564;27;20084;-72
2022/11/06 08:23:29;;;;;;;10.38;4.00;;;11.20;97.30;;;;;;5132091;28;20024;-74
2022/11/06 08:26:00;;;;;;;7.63;3.40;;;11.50;97.10;;;;;;5132064;27;20089;-73
2022/11/06 08:28:26;;;;;;;8.38;4.00;;;11.70;96.80;;;;;;5131749;27;20030;-74
2022/11/06 08:30:53;;;;;;;6.80;3.53;;;11.70;96.60;;;;;;5113215;28;20033;-76
2022/11/06 08:33:22;;;;;;;10.82;3.60;;;11.80;96.50;;;;;;5131388;27;20088;-75
2022/11/06 08:35:48;;;;;;;10.45;5.40;;;11.90;96.50;;;;;;5113874;28;20456;-74
2022/11/06 08:38:14;;;;;;;10.23;4.85;;;11.90;96.40;;;;;;5131895;27;20070;-74
2022/11/06 08:40:40;;;;;;;8.52;4.00;;;12.00;96.30;;;;;;5131655;27;20031;-73
2022/11/06 08:43:09;;;;;;;9.82;4.00;;;12.00;96.20;;;;;;5131511;27;20491;-72
2022/11/06 08:45:39;;;;;;;8.45;3.63;;;12.00;96.10;;;;;;5131264;27;20460;-73
2022/11/06 08:48:06;;;;;;;7.00;3.75;;;12.00;96.00;;;;;;5131998;27;20471;-74
2022/11/06 08:50:32;;;;;;;9.98;4.25;;;12.00;96.00;;;;;;5131766;28;20023;-73
2022/11/06 08:53:03;;;;;;;7.72;4.05;;;12.00;96.00;;;;;;5131720;27;20114;-72
2022/11/06 08:55:38;;;;;;;6.32;3.70;;;12.00;95.90;;;;;;5131719;27;20050;-73
2022/11/06 08:58:05;;;;;;;9.68;3.85;;;12.00;96.00;;;;;;5131130;27;20015;-73
2022/11/06 09:00:31;;;;;;;10.35;3.92;;;11.90;95.90;;;;;;5131266;27;20027;-73
2022/11/06 09:03:06;;;;;;;7.35;3.95;;;11.90;96.00;;;;;;5113313;28;20039;-76
2022/11/06 09:05:31;;;;;;;7.82;3.33;;;12.00;96.00;;;;;;5113344;28;20039;-77
2022/11/06 09:07:58;;;;;;;6.97;3.40;;;11.90;96.00;;;;;;5131381;27;20057;-74
2022/11/06 09:10:25;;;;;;;7.88;4.15;;;12.00;96.10;;;;;;5112944;28;20179;-73
2022/11/06 09:12:51;;;;;;;10.52;4.47;;;12.00;95.90;;;;;;5112693;28;20442;-73
2022/11/06 09:15:18;;;;;;;9.55;3.40;;;12.10;96.10;;;;;;5113395;27;21855;-75
2022/11/06 09:17:46;;;;;;;7.10;3.85;;;12.10;96.00;;;;;;5135556;27;20023;-73
2022/11/06 09:20:13;;;;;;;7.10;3.40;;;12.10;96.00;;;;;;5135114;27;20059;-75
2022/11/06 09:22:40;;;;;;;7.43;3.63;;;12.10;96.00;;;;;;5134979;27;20468;-74
2022/11/06 09:25:06;;;;;;;6.20;3.50;;;12.10;95.90;;;;;;5116545;27;20036;-74
2022/11/06 09:27:33;;;;;;;9.43;3.20;;;12.10;96.00;;;;;;5134655;27;20030;-73
2022/11/06 09:29:58;;;;;;;7.32;3.53;;;12.10;96.00;;;;;;5117386;27;20076;-74
2022/11/06 09:32:24;;;;;;;8.23;3.15;;;12.20;96.10;;;;;;5135246;27;20015;-75
2022/11/06 09:34:50;;;;;;;9.02;3.00;;;12.20;95.90;;;;;;5134810;27;20039;-76
2022/11/06 09:37:16;;;;;;;9.50;3.28;;;12.20;95.90;;;;;;5116457;27;20466;-75
2022/11/06 09:39:41;;;;;;;6.72;3.53;;;12.30;96.00;;;;;;5116457;27;20118;-73
2022/11/06 09:42:13;;;;;;;13.75;3.47;;;12.30;95.90;;;;;;5135019;27;20019;-73
2022/11/06 09:44:57;;;;;;;6.60;3.05;;;12.40;95.90;;;;;;5116866;27;20019;-74
2022/11/06 09:47:28;;;;;;;5.60;2.78;;;12.50;95.90;;;;;;5134467;27;20361;-74
2022/11/06 09:49:56;;;;;;;6.15;2.97;;;12.50;95.80;;;;;;5134321;27;20503;-75
2022/11/06 09:52:34;;;;;;;6.13;2.85;;;12.50;95.80;;;;;;5116329;27;20426;-75
2022/11/06 09:55:15;;;;;;;7.78;2.92;;;12.60;95.60;;;;;;5134360;27;20023;-74
2022/11/06 09:57:50;;;;;;;5.40;2.55;;;12.70;95.60;;;;;;5116021;27;20042;-74
2022/11/06 10:00:17;;;;;;;10.93;4.18;;;12.90;95.70;;;;;;5115904;27;20088;-73
2022/11/06 10:02:55;;;;;;;6.80;3.60;;;13.00;95.30;;;;;;5134438;27;20087;-73
2022/11/06 10:05:26;;;;;;;4.47;2.63;;;13.20;95.30;;;;;;5134130;27;20039;-75
2022/11/06 10:07:55;;;;;;;7.05;2.67;;;13.40;95.10;;;;;;5134142;27;20425;-74
2022/11/06 10:10:44;;;;;;;3.88;2.50;;;13.50;95.00;;;;;;5133980;27;20027;-75
2022/11/06 10:13:48;;;;;;;13.65;5.00;;;14.30;95.00;;;;;;5111412;28;20038;-74
2022/11/06 10:16:40;;;;;;;9.60;3.45;;;14.70;93.40;;;;;;5112251;28;20348;-73
2022/11/06 10:19:09;;;;;;;6.22;2.17;;;15.60;93.80;;;;;;5112422;28;20015;-73
2022/11/06 10:22:06;;;;;;;5.60;2.20;;;17.00;93.10;;;;;;5112169;28;20066;-73
2022/11/06 10:25:09;;;;;;;8.93;2.25;;;18.10;92.10;;;;;;5113427;27;20031;-77
2022/11/06 10:28:04;;;;;;;6.43;2.30;;;18.90;90.90;;;;;;5113105;27;20099;-76
2022/11/06 10:30:59;;;;;;;7.70;2.35;;;19.50;87.10;;;;;;5060645;28;20019;-75
2022/11/06 10:33:30;;;;;;;4.25;2.30;;;20.10;85.50;;;;;;5112905;27;20062;-75
2022/11/06 10:36:10;;;;;;;5.65;2.30;;;20.70;86.80;;;;;;5113526;28;20047;-77
2022/11/06 10:38:43;;;;;;;4.70;2.25;;;21.20;82.80;;;;;;5112357;28;20051;-77
2022/11/06 10:41:22;;;;;;;4.53;2.17;;;21.60;82.20;;;;;;5111876;28;20071;-75
2022/11/06 10:43:52;;;;;;;5.68;2.58;;;21.60;79.20;;;;;;5111753;28;20389;-74
2022/11/06 10:46:35;;;;;;;7.97;2.35;;;21.90;78.30;;;;;;5112685;27;20341;-74
2022/11/06 10:49:09;;;;;;;9.25;3.95;;;22.00;78.10;;;;;;5112724;27;20028;-75
2022/11/06 10:52:08;;;;;;;9.02;2.83;;;22.30;78.40;;;;;;5112624;27;20028;-75
2022/11/06 10:55:06;;;;;;;8.07;2.85;;;22.30;76.60;;;;;;5112583;27;20039;-76
2022/11/06 10:57:43;;;;;;;5.50;2.47;;;22.60;76.10;;;;;;5079428;28;20038;-74
2022/11/06 11:00:12;;;;;;;6.10;2.65;;;22.60;75.60;;;;;;5112710;28;20024;-75
2022/11/06 11:02:44;;;;;;;7.35;2.63;;;22.30;74.70;;;;;;5112621;28;20092;-73
2022/11/06 11:05:19;;;;;;;4.65;2.63;;;22.60;76.10;;;;;;5112581;27;20039;-76
2022/11/06 11:07:47;;;;;;;7.03;2.60;;;22.70;74.30;;;;;;5112686;27;20749;-73
2022/11/06 11:10:21;;;;;;;7.55;2.28;;;22.70;72.40;;;;;;5112047;27;20073;-76
2022/11/06 11:12:55;;;;;;;5.90;2.03;;;22.90;72.40;;;;;;5124448;27;20083;-74
2022/11/06 11:15:23;;;;;;;4.18;2.38;;;22.90;71.90;;;;;;5132599;27;20434;-74
2022/11/06 11:18:11;;;;;;;6.25;2.17;;;22.80;71.00;;;;;;5133144;27;20049;-75
2022/11/06 11:20:39;;;;;;;11.32;5.82;;;23.10;71.50;;;;;;5133312;27;20027;-74
2022/11/06 11:23:21;;;;;;;24.70;13.65;;;23.00;70.00;;;;;;5132479;27;20375;-74
2022/11/06 11:25:49;;;;;;;19.80;12.55;;;23.20;70.20;;;;;;5114345;27;20035;-75
2022/11/06 11:28:27;;;;;;;6.07;2.60;;;22.80;69.40;;;;;;5114093;27;20047;-75
2022/11/06 11:30:57;;;;;;;5.93;1.80;;;22.60;68.80;;;;;;5132361;27;20031;-71
2022/11/06 11:33:24;;;;;;;4.03;1.95;;;22.20;70.40;;;;;;5132504;27;20035;-74
2022/11/06 11:35:52;;;;;;;7.63;2.30;;;21.70;70.10;;;;;;5133214;27;20315;-74
2022/11/06 11:38:20;;;;;;;4.32;2.50;;;21.30;71.20;;;;;;5113673;27;20110;-74
2022/11/06 11:40:46;;;;;;;7.78;3.58;;;20.70;71.50;;;;;;5132672;27;20437;-74
2022/11/06 11:43:18;;;;;;;4.57;2.28;;;20.20;72.50;;;;;;5132412;27;20019;-73
2022/11/06 11:46:00;;;;;;;2.88;1.63;;;20.10;73.20;;;;;;5132189;27;20030;-73
2022/11/06 11:48:26;;;;;;;7.38;2.38;;;19.70;73.70;;;;;;5132285;27;20035;-72
2022/11/06 11:50:52;;;;;;;4.85;2.00;;;19.40;73.60;;;;;;5132611;27;20023;-73
2022/11/06 11:53:19;;;;;;;2.42;1.60;;;19.00;74.30;;;;;;5131927;27;20046;-73
2022/11/06 11:55:49;;;;;;;7.72;2.10;;;18.70;74.80;;;;;;5131917;27;20123;-72
2022/11/06 11:58:36;;;;;;;3.97;1.45;;;18.30;75.50;;;;;;5131931;27;20457;-71
2022/11/06 12:01:06;;;;;;;6.65;2.53;;;18.20;75.90;;;;;;5131804;27;20081;-72
2022/11/06 12:03:40;;;;;;;6.57;1.95;;;18.20;76.80;;;;;;5131844;27;20106;-72
2022/11/06 12:06:14;;;;;;;3.58;1.50;;;18.00;75.90;;;;;;5113686;27;20023;-71
2022/11/06 12:08:49;;;;;;;4.53;1.42;;;17.80;75.70;;;;;;5132320;27;20020;-69
2022/11/06 12:11:20;;;;;;;3.05;1.30;;;17.60;76.10;;;;;;5113523;28;20095;-68
2022/11/06 12:14:21;;;;;;;3.17;1.38;;;17.40;77.00;;;;;;5131859;27;20465;-69
2022/11/06 12:16:53;;;;;;;2.13;1.30;;;17.40;76.60;;;;;;5131881;27;20038;-68
2022/11/06 12:19:23;;;;;;;6.72;1.60;;;17.30;76.80;;;;;;5131540;27;20040;-69
2022/11/06 12:21:53;;;;;;;2.83;1.58;;;17.20;76.90;;;;;;5131840;27;20027;-68
2022/11/06 12:24:29;;;;;;;2.33;1.55;;;17.20;76.70;;;;;;5097042;27;20352;-68
2022/11/06 12:27:03;;;;;;;5.57;2.13;;;17.20;76.80;;;;;;5132448;28;20050;-68
2022/11/06 12:29:51;;;;;;;4.60;2.20;;;17.30;77.10;;;;;;5131974;28;20134;-68
2022/11/06 12:32:30;;;;;;;4.22;1.67;;;17.20;76.70;;;;;;5113243;28;20043;-69
2022/11/06 12:35:08;;;;;;;8.20;2.35;;;17.30;78.20;;;;;;5131540;27;20104;-68
2022/11/06 12:37:52;;;;;;;3.90;1.90;;;17.30;77.60;;;;;;5131810;27;20028;-68
2022/11/06 12:40:21;;;;;;;6.05;1.88;;;17.20;77.30;;;;;;5113209;28;20036;-68
2022/11/06 12:42:52;;;;;;;4.68;1.90;;;17.20;77.10;;;;;;5131453;27;20027;-68
2022/11/06 12:45:19;;;;;;;11.70;3.63;;;17.00;77.60;;;;;;5131579;27;20031;-69
2022/11/06 12:47:57;;;;;;;4.03;1.83;;;17.10;77.90;;;;;;5131778;28;20038;-69
2022/11/06 12:50:50;;;;;;;2.83;1.42;;;17.10;77.10;;;;;;5133998;27;20080;-70
2022/11/06 12:53:27;;;;;;;7.35;2.25;;;16.90;76.20;;;;;;5135653;27;20045;-70
2022/11/06 12:56:06;;;;;;;4.50;1.45;;;16.60;76.80;;;;;;5135425;27;20024;-69
2022/11/06 12:59:11;;;;;;;3.22;1.60;;;16.60;77.60;;;;;;5135555;27;20058;-71
2022/11/06 13:01:54;;;;;;;3.90;1.77;;;16.50;78.00;;;;;;5135253;27;20034;-69
2022/11/06 13:04:50;;;;;;;9.80;2.13;;;16.50;77.80;;;;;;5135208;27;20167;-70
2022/11/06 13:07:37;;;;;;;5.43;1.30;;;16.40;77.50;;;;;;5135183;27;20112;-71
2022/11/06 13:10:21;;;;;;;3.47;1.43;;;16.40;78.00;;;;;;5135273;27;20104;-71
2022/11/06 13:13:14;;;;;;;3.97;1.48;;;16.20;79.10;;;;;;5116730;27;20286;-71
2022/11/06 13:16:08;;;;;;;6.97;1.60;;;16.30;78.10;;;;;;5135004;27;20095;-69
2022/11/06 13:18:43;;;;;;;5.43;1.70;;;16.20;78.60;;;;;;5134371;27;20026;-71
2022/11/06 13:21:11;;;;;;;6.38;1.40;;;16.00;78.90;;;;;;5134980;27;20261;-74
2022/11/06 13:23:47;;;;;;;3.42;1.35;;;15.90;79.20;;;;;;5135695;27;20091;-71